Time;durP1;ratioP1;P1;durP2;ratioP2;P2;SDS_P1;SDS_P2;PMS_P1;PMS_P2;Temp;Humidity;BMP_temperature;BMP_pressure;BME280_temperature;BME280_humidity;BME280_pressure;Samples;Min_cycle;Max_cycle;Signal;HPM_P1;HPM_P2
2024/03/15 00:01:58;;;;;;;;;;;13.80;1.00;;;;;;5053696;28;19912;-85
2024/03/15 00:04:24;;;;;;;;;;;13.80;1.00;;;;;;5037644;28;19917;-85
2024/03/15 00:06:49;;;;;;;;;;;13.80;1.00;;;;;;5055320;28;19959;-85
2024/03/15 00:09:15;;;;;;;;;;;13.80;1.00;;;;;;5055218;28;19935;-85
2024/03/15 00:11:40;;;;;;;;;;;13.70;1.00;;;;;;5049741;28;19913;-83
2024/03/15 00:14:05;;;;;;;;;;;13.70;1.00;;;;;;5046983;28;19968;-84
2024/03/15 00:16:31;;;;;;;;;;;13.70;38.40;;;;;;5051261;28;19917;-85
2024/03/15 00:18:58;;;;;;;;;;;13.70;51.40;;;;;;5052442;28;19999;-85
2024/03/15 00:21:23;;;;;;;;;;;13.70;1.00;;;;;;5049211;28;19912;-86
2024/03/15 00:23:51;;;;;;;;;;;13.70;1.00;;;;;;5043815;28;20378;-85
2024/03/15 00:26:16;;;;;;;;;;;13.70;1.00;;;;;;5050571;28;19913;-86
2024/03/15 00:28:42;;;;;;;;;;;13.70;1.00;;;;;;5050374;28;19913;-85
2024/03/15 00:31:08;;;;;;;;;;;13.70;1.00;;;;;;5035288;28;19912;-85
2024/03/15 00:33:33;;;;;;;;;;;13.80;1.00;;;;;;5052615;28;20268;-85
2024/03/15 00:35:59;;;;;;;;;;;13.80;1.00;;;;;;5051365;28;19913;-85
2024/03/15 00:38:24;;;;;;;;;;;13.80;1.00;;;;;;5049400;28;19931;-86
2024/03/15 00:40:49;;;;;;;;;;;13.80;99.90;;;;;;5048715;28;19913;-86
2024/03/15 00:43:16;;;;;;;;;;;13.90;99.90;;;;;;5047080;28;20382;-86
2024/03/15 00:45:44;;;;;;;;;;;13.90;99.90;;;;;;5049833;28;19952;-85
2024/03/15 00:48:09;;;;;;;;;;;13.90;1.00;;;;;;5050968;28;19928;-85
2024/03/15 00:50:35;;;;;;;;;;;13.90;1.00;;;;;;5049436;28;19917;-85
2024/03/15 00:53:00;;;;;;;;;;;13.90;1.00;;;;;;5044379;28;20011;-86
2024/03/15 00:55:30;;;;;;;;;;;13.90;1.00;;;;;;5043697;28;19913;-84
2024/03/15 00:57:56;;;;;;;;;;;13.90;1.00;;;;;;5051600;28;19912;-85
2024/03/15 01:00:21;;;;;;;;;;;14.00;1.00;;;;;;5028410;28;20351;-86
2024/03/15 01:02:47;;;;;;;;;;;14.00;99.90;;;;;;5050213;28;20398;-84
2024/03/15 01:05:12;;;;;;;;;;;14.00;99.90;;;;;;5052001;28;19913;-84
2024/03/15 01:07:38;;;;;;;;;;;13.90;99.90;;;;;;5051417;28;20333;-85
2024/03/15 01:10:03;;;;;;;;;;;13.90;99.90;;;;;;5050296;28;19959;-86
2024/03/15 01:12:29;;;;;;;;;;;13.90;99.90;;;;;;5047274;28;19943;-85
2024/03/15 01:14:55;;;;;;;;;;;13.90;99.90;;;;;;5048386;28;19913;-85
2024/03/15 01:17:20;;;;;;;;;;;13.90;99.90;;;;;;5092111;22;19931;-87
2024/03/15 01:19:46;;;;;;;;;;;13.90;99.90;;;;;;5071735;28;19913;-86
2024/03/15 01:22:11;;;;;;;;;;;13.90;99.90;;;;;;5075814;28;19936;-87
2024/03/15 01:24:37;;;;;;;;;;;13.90;98.90;;;;;;5074494;28;19948;-86
2024/03/15 01:27:02;;;;;;;;;;;13.90;1.00;;;;;;5058254;28;19912;-86
2024/03/15 01:29:28;;;;;;;;;;;13.90;1.00;;;;;;5065656;28;19946;-86
2024/03/15 01:31:54;;;;;;;;;;;13.90;1.00;;;;;;5042962;28;19947;-87
2024/03/15 01:34:19;;;;;;;;;;;13.90;1.00;;;;;;5066050;28;19921;-88
2024/03/15 01:36:45;;;;;;;;;;;13.80;19.50;;;;;;5075349;28;19965;-86
2024/03/15 01:39:10;;;;;;;;;;;13.80;99.90;;;;;;5058145;28;20398;-86
2024/03/15 01:41:36;;;;;;;;;;;13.70;99.90;;;;;;5069112;28;19960;-89
2024/03/15 01:44:01;;;;;;;;;;;13.70;99.90;;;;;;5063725;28;19924;-87
2024/03/15 01:46:27;;;;;;;;;;;13.70;99.90;;;;;;5055482;28;20048;-87
2024/03/15 01:48:53;;;;;;;;;;;13.70;1.00;;;;;;5075554;28;19997;-86
2024/03/15 01:51:18;;;;;;;;;;;13.70;1.00;;;;;;5072399;28;19919;-86
2024/03/15 01:53:44;;;;;;;;;;;13.70;1.00;;;;;;5055095;28;19984;-87
2024/03/15 01:56:09;;;;;;;;;;;13.70;1.00;;;;;;5071927;28;20045;-86
2024/03/15 01:58:36;;;;;;;;;;;13.60;1.00;;;;;;5066351;28;19959;-87
2024/03/15 02:01:02;;;;;;;;;;;13.60;1.00;;;;;;5070751;28;20309;-86
2024/03/15 02:03:29;;;;;;;;;;;13.60;1.00;;;;;;5070839;28;19912;-90
2024/03/15 02:05:55;;;;;;;;;;;13.60;1.00;;;;;;5064150;28;19920;-86
2024/03/15 02:08:21;;;;;;;;;;;13.50;3.00;;;;;;5046549;28;19979;-86
2024/03/15 02:10:47;;;;;;;;;;;13.60;90.40;;;;;;5062417;28;20444;-86
2024/03/15 02:13:15;;;;;;;;;;;13.50;99.90;;;;;;5058384;28;20298;-89
2024/03/15 02:15:41;;;;;;;;;;;13.50;99.90;;;;;;5069226;28;19913;-86
2024/03/15 02:18:07;;;;;;;;;;;13.40;1.00;;;;;;5069365;28;20569;-86
2024/03/15 02:20:32;;;;;;;;;;;13.40;1.00;;;;;;5073034;28;19915;-86
2024/03/15 02:22:58;;;;;;;;;;;13.40;19.40;;;;;;5062946;28;19913;-89
2024/03/15 02:25:24;;;;;;;;;;;13.40;87.40;;;;;;5070129;28;20398;-86
2024/03/15 02:27:49;;;;;;;;;;;13.50;95.40;;;;;;5071237;28;19916;-86
2024/03/15 02:30:16;;;;;;;;;;;13.50;77.80;;;;;;5069256;28;19908;-86
2024/03/15 02:32:42;;;;;;;;;;;13.50;1.00;;;;;;5056401;28;20337;-89
2024/03/15 02:35:08;;;;;;;;;;;13.50;1.00;;;;;;5069652;28;19913;-86
2024/03/15 02:37:37;;;;;;;;;;;13.50;1.00;;;;;;5064725;28;19920;-86
2024/03/15 02:40:03;;;;;;;;;;;13.50;99.90;;;;;;5068025;28;19907;-86
2024/03/15 02:42:28;;;;;;;;;;;13.50;99.90;;;;;;5076438;28;19913;-88
2024/03/15 02:44:54;;;;;;;;;;;13.50;65.30;;;;;;5076443;28;19913;-87
2024/03/15 02:47:25;;;;;;;;;;;13.50;1.00;;;;;;5074591;28;20006;-87
2024/03/15 02:49:51;;;;;;;;;;;13.50;1.00;;;;;;5065037;28;19909;-86
2024/03/15 02:52:17;;;;;;;;;;;13.50;1.00;;;;;;5072929;28;19920;-86
2024/03/15 02:54:43;;;;;;;;;;;13.50;1.00;;;;;;5078859;28;19959;-86
2024/03/15 02:57:08;;;;;;;;;;;13.50;99.90;;;;;;5077380;28;19919;-86
2024/03/15 02:59:34;;;;;;;;;;;13.50;99.90;;;;;;5065523;28;19920;-87
2024/03/15 03:01:59;;;;;;;;;;;13.50;99.90;;;;;;5072230;28;19909;-86
2024/03/15 03:04:25;;;;;;;;;;;13.50;99.90;;;;;;5068056;28;19912;-86
2024/03/15 03:06:50;;;;;;;;;;;13.50;99.90;;;;;;5074197;28;20003;-87
2024/03/15 03:09:20;;;;;;;;;;;13.50;99.90;;;;;;5055341;28;20401;-86
2024/03/15 03:11:46;;;;;;;;;;;13.50;99.90;;;;;;5073992;28;19912;-86
2024/03/15 03:14:13;;;;;;;;;;;13.50;99.90;;;;;;5077612;28;20613;-86
2024/03/15 03:16:42;;;;;;;;;;;13.50;99.90;;;;;;5038851;28;20363;-86
2024/03/15 03:19:07;;;;;;;;;;;13.50;99.90;;;;;;5062507;28;20015;-87
2024/03/15 03:21:33;;;;;;;;;;;13.60;93.40;;;;;;5068829;28;19944;-88
2024/03/15 03:24:00;;;;;;;;;;;13.60;1.00;;;;;;5075549;28;19917;-87
2024/03/15 03:26:26;;;;;;;;;;;13.60;1.00;;;;;;5066900;28;20398;-87
2024/03/15 03:28:51;;;;;;;;;;;13.60;1.00;;;;;;5068565;28;19924;-87
2024/03/15 03:31:18;;;;;;;;;;;13.70;1.00;;;;;;5077939;28;19999;-86
2024/03/15 03:33:44;;;;;;;;;;;13.70;99.90;;;;;;5059532;28;20003;-86
2024/03/15 03:36:09;;;;;;;;;;;13.70;99.90;;;;;;5072892;28;19959;-87
2024/03/15 03:38:35;;;;;;;;;;;13.70;99.90;;;;;;5051114;28;19913;-86
2024/03/15 03:41:00;;;;;;;;;;;13.70;99.90;;;;;;5044192;28;19913;-86
2024/03/15 03:43:26;;;;;;;;;;;13.70;99.90;;;;;;5048142;28;19927;-88
2024/03/15 03:45:53;;;;;;;;;;;13.80;99.90;;;;;;5072989;28;19920;-86
2024/03/15 03:48:19;;;;;;;;;;;13.70;99.90;;;;;;5064498;28;19916;-86
2024/03/15 03:50:44;;;;;;;;;;;13.70;99.90;;;;;;5068865;28;19912;-87
2024/03/15 03:53:10;;;;;;;;;;;13.70;99.90;;;;;;5073937;28;19916;-86
2024/03/15 03:55:40;;;;;;;;;;;13.70;99.90;;;;;;5049006;28;19927;-86
2024/03/15 03:58:05;;;;;;;;;;;13.70;99.90;;;;;;5060808;28;19912;-86
2024/03/15 04:00:34;;;;;;;;;;;13.70;1.00;;;;;;5041104;28;19919;-86
2024/03/15 04:03:02;;;;;;;;;;;13.70;1.00;;;;;;5049229;28;19928;-86
2024/03/15 04:05:27;;;;;;;;;;;13.70;1.00;;;;;;5067440;28;20306;-86
2024/03/15 04:07:54;;;;;;;;;;;13.70;10.20;;;;;;5048698;28;19921;-86
2024/03/15 04:10:20;;;;;;;;;;;13.70;25.30;;;;;;5070353;28;19966;-86
2024/03/15 04:12:45;;;;;;;;;;;13.70;2.80;;;;;;5051658;28;19916;-86
2024/03/15 04:15:11;;;;;;;;;;;13.70;1.00;;;;;;5074210;28;20294;-86
2024/03/15 04:17:37;;;;;;;;;;;13.70;11.80;;;;;;5075741;28;20000;-86
2024/03/15 04:20:06;;;;;;;;;;;13.60;99.90;;;;;;5047807;28;19966;-86
2024/03/15 04:22:31;;;;;;;;;;;13.60;99.90;;;;;;5071993;28;19912;-86
2024/03/15 04:24:59;;;;;;;;;;;13.60;99.90;;;;;;5072661;28;20002;-86
2024/03/15 04:27:25;;;;;;;;;;;13.60;1.00;;;;;;5068354;28;19913;-87
2024/03/15 04:29:51;;;;;;;;;;;13.60;1.00;;;;;;5074558;28;19917;-89
2024/03/15 04:32:19;;;;;;;;;;;13.60;1.00;;;;;;5073081;28;19913;-86
2024/03/15 04:34:47;;;;;;;;;;;13.60;23.90;;;;;;5066717;28;19918;-88
2024/03/15 04:37:15;;;;;;;;;;;13.60;99.90;;;;;;5056514;28;20366;-86
2024/03/15 04:39:40;;;;;;;;;;;13.60;99.90;;;;;;5057250;28;19964;-86
2024/03/15 04:42:06;;;;;;;;;;;13.60;99.90;;;;;;5073307;28;19952;-87
2024/03/15 04:44:38;;;;;;;;;;;13.60;99.90;;;;;;5074383;28;20267;-86
2024/03/15 04:47:04;;;;;;;;;;;13.60;99.90;;;;;;5065824;28;19912;-87
2024/03/15 04:49:29;;;;;;;;;;;13.60;99.90;;;;;;5043723;28;19976;-86
2024/03/15 04:51:55;;;;;;;;;;;13.60;1.00;;;;;;5050700;28;19988;-86
2024/03/15 04:54:21;;;;;;;;;;;13.60;1.00;;;;;;5074733;28;19920;-85
2024/03/15 04:56:47;;;;;;;;;;;13.60;1.00;;;;;;5056015;28;20003;-91
2024/03/15 04:59:12;;;;;;;;;;;13.60;28.30;;;;;;5069248;28;19912;-86
2024/03/15 05:01:38;;;;;;;;;;;13.60;99.90;;;;;;5047245;28;19920;-87
2024/03/15 05:04:03;;;;;;;;;;;13.60;99.90;;;;;;5066423;28;20337;-86
2024/03/15 05:06:30;;;;;;;;;;;13.60;99.90;;;;;;5064922;28;19923;-86
2024/03/15 05:08:56;;;;;;;;;;;13.60;99.90;;;;;;5064344;28;19913;-86
2024/03/15 05:11:21;;;;;;;;;;;13.60;99.90;;;;;;5065459;28;19991;-86
2024/03/15 05:13:48;;;;;;;;;;;13.60;99.90;;;;;;5044599;28;19917;-87
2024/03/15 05:16:14;;;;;;;;;;;13.60;99.90;;;;;;5040139;28;19917;-86
2024/03/15 05:18:43;;;;;;;;;;;13.60;99.90;;;;;;5061318;28;19926;-86
2024/03/15 05:21:11;;;;;;;;;;;13.60;1.00;;;;;;5053532;28;19913;-86
2024/03/15 05:23:40;;;;;;;;;;;13.60;1.00;;;;;;5071114;28;20367;-87
2024/03/15 05:26:05;;;;;;;;;;;13.60;1.00;;;;;;5052253;28;19912;-88
2024/03/15 05:28:32;;;;;;;;;;;13.60;1.00;;;;;;5045660;28;19996;-85
2024/03/15 05:30:58;;;;;;;;;;;13.60;1.00;;;;;;5069659;28;19912;-87
2024/03/15 05:33:23;;;;;;;;;;;13.60;1.00;;;;;;5071425;28;19978;-86
2024/03/15 05:35:51;;;;;;;;;;;13.60;1.00;;;;;;5067693;28;19917;-86
2024/03/15 05:38:17;;;;;;;;;;;13.50;1.00;;;;;;5055292;28;19931;-87
2024/03/15 05:40:42;;;;;;;;;;;13.50;1.00;;;;;;5074258;28;19913;-87
2024/03/15 05:43:11;;;;;;;;;;;13.50;1.00;;;;;;5065400;28;20100;-86
2024/03/15 05:45:37;;;;;;;;;;;13.50;1.00;;;;;;5054353;28;19912;-86
2024/03/15 05:48:03;;;;;;;;;;;13.50;1.00;;;;;;5067948;28;20073;-88
2024/03/15 05:50:30;;;;;;;;;;;13.50;1.00;;;;;;5069922;28;19998;-86
2024/03/15 05:52:56;;;;;;;;;;;13.40;38.60;;;;;;5057006;28;19924;-87
2024/03/15 05:55:22;;;;;;;;;;;13.40;99.90;;;;;;5050436;28;20336;-88
2024/03/15 05:57:47;;;;;;;;;;;13.40;99.90;;;;;;5076704;28;19921;-88
2024/03/15 06:00:13;;;;;;;;;;;13.40;99.90;;;;;;5073562;28;19912;-86
2024/03/15 06:02:39;;;;;;;;;;;13.40;99.90;;;;;;5071698;28;19921;-85
2024/03/15 06:05:05;;;;;;;;;;;13.50;99.90;;;;;;5052867;28;19912;-89
2024/03/15 06:07:31;;;;;;;;;;;13.50;99.90;;;;;;5068964;28;19958;-86
2024/03/15 06:09:57;;;;;;;;;;;13.50;99.90;;;;;;5061859;28;19988;-86
2024/03/15 06:12:27;;;;;;;;;;;13.50;99.90;;;;;;5069865;28;20381;-89
2024/03/15 06:14:55;;;;;;;;;;;13.60;99.90;;;;;;5054306;28;19920;-87
2024/03/15 06:17:20;;;;;;;;;;;13.60;99.90;;;;;;5067670;28;19917;-87
2024/03/15 06:19:46;;;;;;;;;;;13.60;99.90;;;;;;5067922;28;19935;-88
2024/03/15 06:22:13;;;;;;;;;;;13.70;99.90;;;;;;5061339;28;20394;-86
2024/03/15 06:24:39;;;;;;;;;;;13.70;99.90;;;;;;5067234;28;20007;-86
2024/03/15 06:27:07;;;;;;;;;;;13.70;99.90;;;;;;5070827;28;19944;-86
2024/03/15 06:29:33;;;;;;;;;;;13.70;99.90;;;;;;5065707;28;20386;-89
2024/03/15 06:31:59;;;;;;;;;;;13.80;99.90;;;;;;5069243;28;20011;-86
2024/03/15 06:34:27;;;;;;;;;;;13.80;99.90;;;;;;5059890;28;19918;-89
2024/03/15 06:36:54;;;;;;;;;;;13.90;99.90;;;;;;5053208;28;19913;-86
2024/03/15 06:39:40;;;;;;;;;;;13.90;99.90;;;;;;5075391;28;19970;-87
2024/03/15 06:42:23;;;;;;;;;;;13.90;99.90;;;;;;5051144;28;19912;-87
2024/03/15 06:45:08;;;;;;;;;;;13.90;99.90;;;;;;5063024;28;19913;-86
2024/03/15 06:47:44;;;;;;;;;;;13.90;1.00;;;;;;5050314;28;19912;-89
2024/03/15 06:52:37;;;;;;;;;;;13.90;1.00;;;;;;5071409;28;19912;-86
2024/03/15 06:55:04;;;;;;;;;;;13.90;1.00;;;;;;5066691;28;19908;-86
2024/03/15 06:57:31;;;;;;;;;;;13.90;1.00;;;;;;5047948;28;19913;-87
2024/03/15 06:59:57;;;;;;;;;;;13.90;99.90;;;;;;5068200;28;19913;-86
2024/03/15 07:02:23;;;;;;;;;;;13.80;99.90;;;;;;5056730;28;19912;-86
2024/03/15 07:04:50;;;;;;;;;;;13.80;99.90;;;;;;5068836;28;20015;-86
2024/03/15 07:07:30;;;;;;;;;;;13.80;1.00;;;;;;5068871;28;20378;-86
2024/03/15 07:09:56;;;;;;;;;;;13.70;1.00;;;;;;5051616;28;19944;-87
2024/03/15 07:12:22;;;;;;;;;;;13.60;1.00;;;;;;5082702;28;20302;-86
2024/03/15 07:14:49;;;;;;;;;;;13.70;1.00;;;;;;5075636;28;19919;-86
2024/03/15 07:17:15;;;;;;;;;;;13.90;1.00;;;;;;5090546;22;20429;-84
2024/03/15 07:19:40;;;;;;;;;;;13.90;1.00;;;;;;5066068;28;20195;-85
2024/03/15 07:22:06;;;;;;;;;;;14.00;1.00;;;;;;5075820;28;20407;-85
2024/03/15 07:24:31;;;;;;;;;;;14.00;1.00;;;;;;5075004;28;19924;-85
2024/03/15 07:26:57;;;;;;;;;;;14.00;1.00;;;;;;5082006;28;19992;-85
2024/03/15 07:29:22;;;;;;;;;;;14.10;1.00;;;;;;5074252;28;19913;-86
2024/03/15 07:31:49;;;;;;;;;;;14.10;1.00;;;;;;5056649;28;20370;-85
2024/03/15 07:34:14;;;;;;;;;;;14.10;1.00;;;;;;5074638;28;19921;-85
2024/03/15 07:36:40;;;;;;;;;;;14.20;1.00;;;;;;5070763;28;20002;-86
2024/03/15 07:39:07;;;;;;;;;;;14.20;1.00;;;;;;5079195;28;20423;-85
2024/03/15 07:41:34;;;;;;;;;;;14.30;1.00;;;;;;5069988;28;19919;-86
2024/03/15 07:44:03;;;;;;;;;;;14.40;1.00;;;;;;5070788;28;20322;-86
2024/03/15 07:46:29;;;;;;;;;;;14.50;99.90;;;;;;5071296;28;20390;-85
2024/03/15 07:48:54;;;;;;;;;;;14.60;99.90;;;;;;5090764;28;19912;-86
2024/03/15 07:51:20;;;;;;;;;;;14.60;99.90;;;;;;5083483;28;20298;-85
2024/03/15 07:53:45;;;;;;;;;;;14.60;99.90;;;;;;5066576;28;19917;-85
2024/03/15 07:56:11;;;;;;;;;;;14.70;99.90;;;;;;5078031;28;19919;-86
2024/03/15 07:58:37;;;;;;;;;;;14.80;99.90;;;;;;5050156;28;19912;-85
2024/03/15 08:01:07;;;;;;;;;;;15.00;48.30;;;;;;5082553;28;19912;-85
2024/03/15 08:03:33;;;;;;;;;;;15.00;1.00;;;;;;5058181;28;19909;-83
2024/03/15 08:06:00;;;;;;;;;;;15.10;1.00;;;;;;5059337;28;19912;-85
2024/03/15 08:08:26;;;;;;;;;;;15.10;1.00;;;;;;5089699;28;19916;-84
2024/03/15 08:10:52;;;;;;;;;;;15.40;99.90;;;;;;5073114;28;19931;-86
2024/03/15 08:13:21;;;;;;;;;;;15.90;99.90;;;;;;5088102;28;20377;-86
2024/03/15 08:15:59;;;;;;;;;;;16.30;1.00;;;;;;5094058;28;19908;-85
2024/03/15 08:18:28;;;;;;;;;;;16.80;99.90;;;;;;5085753;28;19916;-86
2024/03/15 08:20:53;;;;;;;;;;;17.30;99.90;;;;;;5076513;28;19909;-85
2024/03/15 08:23:19;;;;;;;;;;;17.50;1.00;;;;;;5046414;28;19919;-86
2024/03/15 08:25:44;;;;;;;;;;;18.00;99.90;;;;;;5080105;28;19912;-86
2024/03/15 08:28:13;;;;;;;;;;;19.70;99.90;;;;;;5086725;28;19918;-87
2024/03/15 08:30:39;;;;;;;;;;;23.90;1.00;;;;;;5085003;28;19916;-88
2024/03/15 08:33:06;;;;;;;;;;;27.60;99.90;;;;;;5093294;28;19916;-87
2024/03/15 08:35:31;;;;;;;;;;;29.30;99.90;;;;;;5093265;28;19915;-87
2024/03/15 08:37:58;;;;;;;;;;;30.20;99.90;;;;;;5093364;28;19938;-87
2024/03/15 08:40:25;;;;;;;;;;;31.70;99.90;;;;;;5075236;28;19913;-87
2024/03/15 08:42:50;;;;;;;;;;;31.90;99.90;;;;;;5080031;28;19916;-87
2024/03/15 08:45:16;;;;;;;;;;;30.30;99.90;;;;;;5086118;28;19977;-87
2024/03/15 08:47:41;;;;;;;;;;;28.50;99.90;;;;;;5090881;28;19923;-87
2024/03/15 08:50:11;;;;;;;;;;;26.90;99.90;;;;;;5092741;28;19909;-86
2024/03/15 08:52:39;;;;;;;;;;;25.30;99.90;;;;;;5077481;28;20008;-87
2024/03/15 08:55:08;;;;;;;;;;;24.30;99.90;;;;;;5079728;28;19934;-86
2024/03/15 08:57:34;;;;;;;;;;;23.80;99.90;;;;;;5045136;28;19913;-86
2024/03/15 08:59:59;;;;;;;;;;;23.50;99.90;;;;;;5071586;28;19912;-86
2024/03/15 09:02:26;;;;;;;;;;;23.40;99.90;;;;;;5062246;28;19909;-86
2024/03/15 09:04:51;;;;;;;;;;;23.20;99.90;;;;;;5074565;28;19933;-86
2024/03/15 09:07:18;;;;;;;;;;;23.00;99.90;;;;;;5093062;28;19994;-87
2024/03/15 09:09:44;;;;;;;;;;;24.20;99.90;;;;;;5092847;28;19912;-87
2024/03/15 09:12:09;;;;;;;;;;;26.80;99.90;;;;;;5074931;28;20335;-87
2024/03/15 09:14:35;;;;;;;;;;;28.60;99.90;;;;;;5061244;28;19920;-88
2024/03/15 09:17:08;;;;;;;;;;;30.50;99.90;;;;;;5076452;28;19967;-87
2024/03/15 09:19:33;;;;;;;;;;;31.50;99.90;;;;;;5073731;28;19916;-87
2024/03/15 09:21:59;;;;;;;;;;;30.90;99.90;;;;;;5080518;28;19955;-86
2024/03/15 09:24:26;;;;;;;;;;;29.90;99.90;;;;;;5061397;28;19909;-87
2024/03/15 09:26:52;;;;;;;;;;;28.50;99.90;;;;;;5092468;28;19912;-87
2024/03/15 09:29:19;;;;;;;;;;;27.00;99.90;;;;;;5092357;28;19908;-87
2024/03/15 09:31:51;;;;;;;;;;;25.80;99.90;;;;;;5073653;28;19908;-87
2024/03/15 09:34:17;;;;;;;;;;;25.10;99.90;;;;;;5073162;28;19916;-86
2024/03/15 09:36:42;;;;;;;;;;;24.20;99.90;;;;;;5071185;28;20015;-86
2024/03/15 09:39:09;;;;;;;;;;;23.40;99.90;;;;;;5085388;28;19909;-86
2024/03/15 09:41:35;;;;;;;;;;;22.80;99.90;;;;;;5087480;28;19912;-86
2024/03/15 09:44:01;;;;;;;;;;;22.40;99.90;;;;;;5092582;28;19915;-87
2024/03/15 09:46:28;;;;;;;;;;;22.20;99.90;;;;;;5079880;28;19917;-86
2024/03/15 09:48:56;;;;;;;;;;;22.10;99.90;;;;;;5069112;28;19917;-86
2024/03/15 09:51:22;;;;;;;;;;;22.00;99.90;;;;;;5072814;28;19916;-86
2024/03/15 09:53:47;;;;;;;;;;;22.00;99.90;;;;;;5079604;28;20019;-85
2024/03/15 09:56:17;;;;;;;;;;;22.00;99.90;;;;;;5072136;28;19912;-86
2024/03/15 09:58:46;;;;;;;;;;;22.20;99.90;;;;;;5072039;28;19909;-86
2024/03/15 10:01:15;;;;;;;;;;;22.50;99.90;;;;;;5072164;28;20302;-87
2024/03/15 10:03:50;;;;;;;;;;;23.40;99.90;;;;;;5054335;28;20432;-85
2024/03/15 10:06:16;;;;;;;;;;;24.10;99.90;;;;;;5061093;28;19913;-87
2024/03/15 10:08:41;;;;;;;;;;;25.10;99.90;;;;;;5069987;28;19916;-87
2024/03/15 10:11:07;;;;;;;;;;;25.80;99.90;;;;;;5071149;28;19908;-87
2024/03/15 10:13:33;;;;;;;;;;;26.10;99.90;;;;;;5054225;28;19935;-87
2024/03/15 10:16:00;;;;;;;;;;;26.20;99.90;;;;;;5071459;28;19958;-86
2024/03/15 10:18:25;;;;;;;;;;;25.90;99.90;;;;;;5071640;28;19912;-86
2024/03/15 10:20:54;;;;;;;;;;;26.90;99.90;;;;;;5088681;28;20305;-88
2024/03/15 10:23:20;;;;;;;;;;;27.90;99.90;;;;;;5069122;28;19957;-87
2024/03/15 10:25:45;;;;;;;;;;;29.60;99.90;;;;;;5082753;28;19995;-87
2024/03/15 10:28:11;;;;;;;;;;;29.70;99.90;;;;;;5090864;28;19908;-87
2024/03/15 10:30:37;;;;;;;;;;;29.50;99.90;;;;;;5091750;28;19908;-87
2024/03/15 10:33:06;;;;;;;;;;;30.00;99.90;;;;;;5091607;28;19957;-87
2024/03/15 10:35:31;;;;;;;;;;;29.70;99.90;;;;;;5086143;28;19937;-86
2024/03/15 10:37:58;;;;;;;;;;;29.60;99.90;;;;;;5069014;28;19916;-87
2024/03/15 10:40:25;;;;;;;;;;;28.50;99.90;;;;;;5073451;28;19999;-88
2024/03/15 10:42:54;;;;;;;;;;;29.50;99.90;;;;;;5079127;28;19916;-87
2024/03/15 10:45:20;;;;;;;;;;;29.80;99.90;;;;;;5093226;28;19912;-87
2024/03/15 10:47:46;;;;;;;;;;;29.30;99.90;;;;;;5087301;28;19912;-88
2024/03/15 10:50:11;;;;;;;;;;;29.90;99.90;;;;;;5088626;28;19964;-86
2024/03/15 10:52:41;;;;;;;;;;;29.10;99.90;;;;;;5073062;28;19952;-88
2024/03/15 10:55:12;;;;;;;;;;;28.10;99.90;;;;;;5081972;28;19947;-87
2024/03/15 10:57:38;;;;;;;;;;;27.40;99.90;;;;;;5073887;28;19967;-87
2024/03/15 11:00:14;;;;;;;;;;;27.70;99.90;;;;;;5084609;28;20336;-87
2024/03/15 11:02:49;;;;;;;;;;;28.10;99.90;;;;;;5089198;28;19912;-88
2024/03/15 11:05:21;;;;;;;;;;;28.30;99.90;;;;;;5081765;28;19913;-88
2024/03/15 11:07:47;;;;;;;;;;;29.20;99.90;;;;;;5076386;28;19919;-85
2024/03/15 11:10:13;;;;;;;;;;;28.70;99.90;;;;;;5057012;28;20297;-84
2024/03/15 11:12:39;;;;;;;;;;;28.70;99.90;;;;;;5074469;28;19917;-85
2024/03/15 11:15:05;;;;;;;;;;;29.90;99.90;;;;;;5074996;28;20460;-85
2024/03/15 11:17:30;;;;;;;;;;;30.80;99.90;;;;;;5074507;28;19917;-85
2024/03/15 11:20:04;;;;;;;;;;;31.30;99.90;;;;;;5056996;28;19915;-85
2024/03/15 11:22:30;;;;;;;;;;;32.10;99.90;;;;;;5073216;28;19908;-85
2024/03/15 11:24:57;;;;;;;;;;;31.80;99.90;;;;;;5070060;28;20289;-85
2024/03/15 11:27:24;;;;;;;;;;;30.40;99.90;;;;;;5076416;28;19912;-84
2024/03/15 11:29:55;;;;;;;;;;;29.20;99.90;;;;;;5067167;28;19913;-84
2024/03/15 11:32:21;;;;;;;;;;;28.10;99.90;;;;;;5084888;28;19916;-84
2024/03/15 11:34:48;;;;;;;;;;;27.20;99.90;;;;;;5093437;28;19938;-84
2024/03/15 11:37:15;;;;;;;;;;;26.10;99.90;;;;;;5088423;28;19919;-84
2024/03/15 11:39:58;;;;;;;;;;;25.10;99.90;;;;;;5075527;28;20003;-85
2024/03/15 11:42:26;;;;;;;;;;;24.30;99.90;;;;;;5080064;28;19965;-85
2024/03/15 11:44:52;;;;;;;;;;;24.70;99.90;;;;;;5090495;28;20281;-85
2024/03/15 11:47:17;;;;;;;;;;;24.90;99.90;;;;;;5089181;28;19927;-84
2024/03/15 11:49:43;;;;;;;;;;;24.70;99.90;;;;;;5088734;28;19920;-84
2024/03/15 11:52:09;;;;;;;;;;;24.40;99.90;;;;;;5088667;28;19912;-84
2024/03/15 11:54:35;;;;;;;;;;;23.70;99.90;;;;;;5068118;28;20603;-83
2024/03/15 11:57:02;;;;;;;;;;;23.10;99.90;;;;;;5074202;28;19948;-85
2024/03/15 11:59:27;;;;;;;;;;;22.50;99.90;;;;;;5073474;28;19912;-85
2024/03/15 12:01:55;;;;;;;;;;;22.00;99.90;;;;;;5074847;28;19970;-85
2024/03/15 12:04:24;;;;;;;;;;;21.50;99.90;;;;;;5078581;28;19947;-84
2024/03/15 12:06:50;;;;;;;;;;;21.20;99.90;;;;;;5074294;28;19917;-86
2024/03/15 12:09:16;;;;;;;;;;;21.10;99.90;;;;;;5078776;28;19920;-85
2024/03/15 12:11:42;;;;;;;;;;;21.60;99.90;;;;;;5052994;28;19912;-85
2024/03/15 12:14:11;;;;;;;;;;;22.30;99.90;;;;;;5062794;28;19920;-86
2024/03/15 12:16:40;;;;;;;;;;;22.50;99.90;;;;;;5078033;28;19916;-85
2024/03/15 12:19:08;;;;;;;;;;;22.50;99.90;;;;;;5074087;28;19935;-84
2024/03/15 12:21:37;;;;;;;;;;;22.80;99.90;;;;;;5067295;28;20004;-84
2024/03/15 12:24:03;;;;;;;;;;;22.90;99.90;;;;;;5073384;28;19912;-84
2024/03/15 12:26:28;;;;;;;;;;;23.00;99.90;;;;;;5067360;28;19913;-85
2024/03/15 12:28:54;;;;;;;;;;;22.90;99.90;;;;;;5059858;28;19917;-85
2024/03/15 12:31:19;;;;;;;;;;;22.50;99.90;;;;;;5088367;28;19943;-85
2024/03/15 12:33:45;;;;;;;;;;;22.10;99.90;;;;;;5070480;28;19917;-84
2024/03/15 12:36:10;;;;;;;;;;;21.90;99.90;;;;;;5074921;28;19916;-84
2024/03/15 12:38:36;;;;;;;;;;;22.10;99.90;;;;;;5089934;28;19919;-84
2024/03/15 12:41:02;;;;;;;;;;;22.10;99.90;;;;;;5073608;28;19912;-86
2024/03/15 12:43:29;;;;;;;;;;;22.00;99.90;;;;;;5069748;28;20405;-85
2024/03/15 12:45:54;;;;;;;;;;;21.90;99.90;;;;;;5067881;28;19999;-85
2024/03/15 12:48:20;;;;;;;;;;;22.20;99.90;;;;;;5083188;28;20002;-85
2024/03/15 12:50:45;;;;;;;;;;;23.10;99.90;;;;;;5074347;28;19908;-85
2024/03/15 12:53:13;;;;;;;;;;;23.50;99.90;;;;;;5074654;28;20374;-84
2024/03/15 12:55:40;;;;;;;;;;;23.20;99.90;;;;;;5091706;28;19915;-85
2024/03/15 12:58:05;;;;;;;;;;;22.60;99.90;;;;;;5072984;28;20038;-85
2024/03/15 13:00:31;;;;;;;;;;;22.20;99.90;;;;;;5058501;28;19951;-85
2024/03/15 13:02:56;;;;;;;;;;;22.30;99.90;;;;;;5077803;28;19909;-84
2024/03/15 13:05:22;;;;;;;;;;;22.60;99.90;;;;;;5081297;28;19919;-85
2024/03/15 13:07:48;;;;;;;;;;;23.30;99.90;;;;;;5069073;28;19927;-84
2024/03/15 13:10:15;;;;;;;;;;;23.30;99.90;;;;;;5073313;28;19913;-85
2024/03/15 13:12:41;;;;;;;;;;;22.90;99.90;;;;;;5064076;28;19917;-84
2024/03/15 13:15:15;;;;;;;;;;;22.40;99.90;;;;;;5064333;28;20389;-85
2024/03/15 13:17:41;;;;;;;;;;;21.80;99.90;;;;;;5064700;28;19916;-84
2024/03/15 13:20:15;;;;;;;;;;;21.40;99.90;;;;;;5084730;28;19916;-84
2024/03/15 13:22:54;;;;;;;;;;;21.00;99.90;;;;;;5081949;28;19916;-85
2024/03/15 13:25:22;;;;;;;;;;;20.50;99.90;;;;;;5057830;28;19912;-85
2024/03/15 13:27:48;;;;;;;;;;;20.00;99.90;;;;;;5064687;28;19912;-86
2024/03/15 13:30:16;;;;;;;;;;;19.50;1.00;;;;;;5076560;28;19923;-84
2024/03/15 13:32:43;;;;;;;;;;;19.10;1.00;;;;;;5076915;28;19916;-84
2024/03/15 13:35:15;;;;;;;;;;;18.60;1.00;;;;;;5056124;28;19974;-84
2024/03/15 13:37:40;;;;;;;;;;;18.40;99.90;;;;;;5082189;28;19921;-85
2024/03/15 13:40:09;;;;;;;;;;;18.70;99.90;;;;;;5078702;28;20431;-85
2024/03/15 13:42:37;;;;;;;;;;;19.70;99.90;;;;;;5074288;28;20286;-86
2024/03/15 13:45:05;;;;;;;;;;;20.30;1.00;;;;;;5082910;28;20429;-86
2024/03/15 13:47:31;;;;;;;;;;;20.90;1.00;;;;;;5070191;28;19919;-85
2024/03/15 13:50:00;;;;;;;;;;;21.50;1.00;;;;;;5082062;28;19999;-85
2024/03/15 13:52:25;;;;;;;;;;;21.90;99.90;;;;;;5086328;28;19909;-85
2024/03/15 13:54:52;;;;;;;;;;;21.90;99.90;;;;;;5076825;28;20016;-85
2024/03/15 13:57:18;;;;;;;;;;;21.90;99.90;;;;;;5076208;28;19912;-85
2024/03/15 13:59:44;;;;;;;;;;;22.30;99.90;;;;;;5083517;28;19915;-84
2024/03/15 14:02:09;;;;;;;;;;;22.50;99.90;;;;;;5079023;28;20370;-84
2024/03/15 14:04:35;;;;;;;;;;;22.70;99.90;;;;;;5064218;28;19917;-86
2024/03/15 14:07:00;;;;;;;;;;;22.60;99.90;;;;;;5073027;28;19913;-83
2024/03/15 14:09:25;;;;;;;;;;;22.10;99.90;;;;;;5063868;28;19908;-86
2024/03/15 14:11:55;;;;;;;;;;;21.70;99.90;;;;;;5072217;28;20376;-85
2024/03/15 14:14:21;;;;;;;;;;;21.70;99.90;;;;;;5076471;28;19913;-84
2024/03/15 14:16:46;;;;;;;;;;;21.70;99.90;;;;;;5058779;28;19916;-83
2024/03/15 14:19:17;;;;;;;;;;;21.50;99.90;;;;;;5075733;28;20337;-84
2024/03/15 14:21:42;;;;;;;;;;;21.30;99.90;;;;;;5081977;28;20352;-85